sensor_id;sensor_type;location;lat;lon;timestamp;P1;durP1;ratioP1;P2;durP2;ratioP2
27796;SDS011;15177;50.844;4.412;2023-09-30T00:01:02;16.10;;;6.60;;
27796;SDS011;15177;50.844;4.412;2023-09-30T00:03:33;15.85;;;6.35;;
27796;SDS011;15177;50.844;4.412;2023-09-30T00:05:59;16.45;;;7.13;;
27796;SDS011;15177;50.844;4.412;2023-09-30T00:08:24;18.25;;;8.20;;
27796;SDS011;15177;50.844;4.412;2023-09-30T00:10:50;15.10;;;7.72;;
27796;SDS011;15177;50.844;4.412;2023-09-30T00:13:18;14.05;;;7.63;;
27796;SDS011;15177;50.844;4.412;2023-09-30T00:15:43;16.13;;;7.80;;
27796;SDS011;15177;50.844;4.412;2023-09-30T00:18:09;13.88;;;7.45;;
27796;SDS011;15177;50.844;4.412;2023-09-30T00:20:35;16.73;;;8.43;;
27796;SDS011;15177;50.844;4.412;2023-09-30T00:23:01;12.68;;;8.35;;
27796;SDS011;15177;50.844;4.412;2023-09-30T00:25:27;16.05;;;8.48;;
27796;SDS011;15177;50.844;4.412;2023-09-30T00:27:52;15.23;;;8.85;;
27796;SDS011;15177;50.844;4.412;2023-09-30T00:30:18;15.25;;;8.73;;
27796;SDS011;15177;50.844;4.412;2023-09-30T00:32:44;16.30;;;8.98;;
27796;SDS011;15177;50.844;4.412;2023-09-30T00:35:10;16.15;;;9.45;;
27796;SDS011;15177;50.844;4.412;2023-09-30T00:37:39;19.88;;;9.48;;
27796;SDS011;15177;50.844;4.412;2023-09-30T00:40:06;17.85;;;10.50;;
27796;SDS011;15177;50.844;4.412;2023-09-30T00:42:36;15.27;;;9.35;;
27796;SDS011;15177;50.844;4.412;2023-09-30T00:45:06;19.85;;;10.75;;
27796;SDS011;15177;50.844;4.412;2023-09-30T00:47:34;19.25;;;10.68;;
27796;SDS011;15177;50.844;4.412;2023-09-30T00:50:01;23.27;;;11.07;;
27796;SDS011;15177;50.844;4.412;2023-09-30T00:52:28;19.67;;;11.35;;
27796;SDS011;15177;50.844;4.412;2023-09-30T00:54:56;21.27;;;11.02;;
27796;SDS011;15177;50.844;4.412;2023-09-30T00:57:23;22.75;;;11.23;;
27796;SDS011;15177;50.844;4.412;2023-09-30T00:59:50;19.63;;;10.85;;
27796;SDS011;15177;50.844;4.412;2023-09-30T01:02:19;28.83;;;11.02;;
27796;SDS011;15177;50.844;4.412;2023-09-30T01:04:47;17.63;;;10.43;;
27796;SDS011;15177;50.844;4.412;2023-09-30T01:07:13;26.90;;;10.75;;
27796;SDS011;15177;50.844;4.412;2023-09-30T01:09:39;17.38;;;9.88;;
27796;SDS011;15177;50.844;4.412;2023-09-30T01:12:05;17.98;;;8.95;;
27796;SDS011;15177;50.844;4.412;2023-09-30T01:14:33;14.45;;;9.10;;
27796;SDS011;15177;50.844;4.412;2023-09-30T01:17:03;17.77;;;10.73;;
27796;SDS011;15177;50.844;4.412;2023-09-30T01:19:33;28.40;;;9.05;;
27796;SDS011;15177;50.844;4.412;2023-09-30T01:21:59;19.45;;;8.75;;
27796;SDS011;15177;50.844;4.412;2023-09-30T01:24:31;20.33;;;9.23;;
27796;SDS011;15177;50.844;4.412;2023-09-30T01:27:03;18.52;;;8.93;;
27796;SDS011;15177;50.844;4.412;2023-09-30T01:29:29;21.23;;;9.57;;
27796;SDS011;15177;50.844;4.412;2023-09-30T01:31:54;21.40;;;9.80;;
27796;SDS011;15177;50.844;4.412;2023-09-30T01:34:20;21.38;;;10.25;;
27796;SDS011;15177;50.844;4.412;2023-09-30T01:36:46;20.60;;;9.45;;
27796;SDS011;15177;50.844;4.412;2023-09-30T01:39:12;21.30;;;10.30;;
27796;SDS011;15177;50.844;4.412;2023-09-30T01:41:38;20.13;;;9.82;;
27796;SDS011;15177;50.844;4.412;2023-09-30T01:44:05;23.73;;;9.95;;
27796;SDS011;15177;50.844;4.412;2023-09-30T01:46:31;20.10;;;8.73;;
27796;SDS011;15177;50.844;4.412;2023-09-30T01:48:56;22.35;;;9.30;;
27796;SDS011;15177;50.844;4.412;2023-09-30T01:51:22;22.75;;;9.95;;
27796;SDS011;15177;50.844;4.412;2023-09-30T01:53:50;17.73;;;7.85;;
27796;SDS011;15177;50.844;4.412;2023-09-30T01:56:15;21.50;;;7.60;;
27796;SDS011;15177;50.844;4.412;2023-09-30T01:58:41;16.77;;;7.88;;
27796;SDS011;15177;50.844;4.412;2023-09-30T02:01:09;17.27;;;7.93;;
27796;SDS011;15177;50.844;4.412;2023-09-30T02:03:34;15.50;;;7.28;;
27796;SDS011;15177;50.844;4.412;2023-09-30T02:06:01;19.73;;;7.70;;
27796;SDS011;15177;50.844;4.412;2023-09-30T02:08:26;19.40;;;7.70;;
27796;SDS011;15177;50.844;4.412;2023-09-30T02:10:52;16.08;;;6.95;;
27796;SDS011;15177;50.844;4.412;2023-09-30T02:13:18;15.05;;;7.03;;
27796;SDS011;15177;50.844;4.412;2023-09-30T02:15:45;20.75;;;7.43;;
27796;SDS011;15177;50.844;4.412;2023-09-30T02:18:10;15.73;;;7.13;;
27796;SDS011;15177;50.844;4.412;2023-09-30T02:20:36;22.38;;;7.93;;
27796;SDS011;15177;50.844;4.412;2023-09-30T02:23:05;14.05;;;6.18;;
27796;SDS011;15177;50.844;4.412;2023-09-30T02:25:32;19.40;;;7.60;;
27796;SDS011;15177;50.844;4.412;2023-09-30T02:27:58;17.58;;;7.20;;
27796;SDS011;15177;50.844;4.412;2023-09-30T02:30:25;23.17;;;7.85;;
27796;SDS011;15177;50.844;4.412;2023-09-30T02:32:52;14.45;;;7.38;;
27796;SDS011;15177;50.844;4.412;2023-09-30T02:35:18;21.15;;;7.60;;
27796;SDS011;15177;50.844;4.412;2023-09-30T02:37:45;19.33;;;7.35;;
27796;SDS011;15177;50.844;4.412;2023-09-30T02:40:11;19.20;;;7.70;;
27796;SDS011;15177;50.844;4.412;2023-09-30T02:42:40;25.38;;;7.25;;
27796;SDS011;15177;50.844;4.412;2023-09-30T02:45:06;21.60;;;8.02;;
27796;SDS011;15177;50.844;4.412;2023-09-30T02:47:33;24.75;;;8.05;;
27796;SDS011;15177;50.844;4.412;2023-09-30T02:49:59;18.17;;;7.72;;
27796;SDS011;15177;50.844;4.412;2023-09-30T02:52:25;18.67;;;7.95;;
27796;SDS011;15177;50.844;4.412;2023-09-30T02:54:52;19.58;;;8.10;;
27796;SDS011;15177;50.844;4.412;2023-09-30T02:57:18;16.77;;;8.30;;
27796;SDS011;15177;50.844;4.412;2023-09-30T02:59:44;23.15;;;8.90;;
27796;SDS011;15177;50.844;4.412;2023-09-30T03:02:10;19.17;;;8.57;;
27796;SDS011;15177;50.844;4.412;2023-09-30T03:04:40;21.00;;;8.50;;
27796;SDS011;15177;50.844;4.412;2023-09-30T03:07:07;28.42;;;10.10;;
27796;SDS011;15177;50.844;4.412;2023-09-30T03:09:33;16.13;;;8.95;;
27796;SDS011;15177;50.844;4.412;2023-09-30T03:12:00;27.10;;;9.32;;
27796;SDS011;15177;50.844;4.412;2023-09-30T03:14:29;23.67;;;9.60;;
27796;SDS011;15177;50.844;4.412;2023-09-30T03:16:56;25.02;;;9.13;;
27796;SDS011;15177;50.844;4.412;2023-09-30T03:19:25;29.63;;;10.10;;
27796;SDS011;15177;50.844;4.412;2023-09-30T03:21:50;23.13;;;9.48;;
27796;SDS011;15177;50.844;4.412;2023-09-30T03:24:16;24.67;;;9.55;;
27796;SDS011;15177;50.844;4.412;2023-09-30T03:26:42;28.30;;;11.27;;
27796;SDS011;15177;50.844;4.412;2023-09-30T03:29:09;23.38;;;9.35;;
27796;SDS011;15177;50.844;4.412;2023-09-30T03:31:35;25.80;;;10.10;;
27796;SDS011;15177;50.844;4.412;2023-09-30T03:34:04;23.88;;;9.55;;
27796;SDS011;15177;50.844;4.412;2023-09-30T03:36:30;21.50;;;10.18;;
27796;SDS011;15177;50.844;4.412;2023-09-30T03:38:56;26.67;;;10.60;;
27796;SDS011;15177;50.844;4.412;2023-09-30T03:41:30;29.33;;;9.68;;
27796;SDS011;15177;50.844;4.412;2023-09-30T03:43:56;27.65;;;10.30;;
27796;SDS011;15177;50.844;4.412;2023-09-30T03:46:22;23.85;;;9.93;;
27796;SDS011;15177;50.844;4.412;2023-09-30T03:48:47;24.73;;;9.75;;
27796;SDS011;15177;50.844;4.412;2023-09-30T03:51:13;29.50;;;10.25;;
27796;SDS011;15177;50.844;4.412;2023-09-30T03:53:43;34.45;;;11.45;;
27796;SDS011;15177;50.844;4.412;2023-09-30T03:56:10;31.90;;;11.63;;
27796;SDS011;15177;50.844;4.412;2023-09-30T03:58:42;28.00;;;11.82;;
27796;SDS011;15177;50.844;4.412;2023-09-30T04:01:08;31.42;;;11.40;;
27796;SDS011;15177;50.844;4.412;2023-09-30T04:03:38;28.50;;;11.15;;
27796;SDS011;15177;50.844;4.412;2023-09-30T04:06:04;30.95;;;12.57;;
27796;SDS011;15177;50.844;4.412;2023-09-30T04:08:33;32.88;;;11.10;;
27796;SDS011;15177;50.844;4.412;2023-09-30T04:10:59;30.33;;;12.07;;
27796;SDS011;15177;50.844;4.412;2023-09-30T04:13:26;30.25;;;11.68;;
27796;SDS011;15177;50.844;4.412;2023-09-30T04:15:54;33.92;;;12.05;;
27796;SDS011;15177;50.844;4.412;2023-09-30T04:18:20;29.77;;;12.20;;
27796;SDS011;15177;50.844;4.412;2023-09-30T04:20:47;29.20;;;12.48;;
27796;SDS011;15177;50.844;4.412;2023-09-30T04:23:13;34.45;;;12.48;;
27796;SDS011;15177;50.844;4.412;2023-09-30T04:25:40;28.67;;;12.93;;
27796;SDS011;15177;50.844;4.412;2023-09-30T04:28:05;29.95;;;13.32;;
27796;SDS011;15177;50.844;4.412;2023-09-30T04:30:33;34.97;;;12.75;;
27796;SDS011;15177;50.844;4.412;2023-09-30T04:32:59;26.23;;;12.43;;
27796;SDS011;15177;50.844;4.412;2023-09-30T04:35:26;28.48;;;11.90;;
27796;SDS011;15177;50.844;4.412;2023-09-30T04:37:51;33.08;;;12.05;;
27796;SDS011;15177;50.844;4.412;2023-09-30T04:40:17;25.85;;;11.73;;
27796;SDS011;15177;50.844;4.412;2023-09-30T04:42:47;38.70;;;12.00;;
27796;SDS011;15177;50.844;4.412;2023-09-30T04:45:13;32.10;;;10.90;;
27796;SDS011;15177;50.844;4.412;2023-09-30T04:47:45;36.22;;;11.75;;
27796;SDS011;15177;50.844;4.412;2023-09-30T04:50:11;31.98;;;11.75;;
27796;SDS011;15177;50.844;4.412;2023-09-30T04:52:38;30.90;;;11.18;;
27796;SDS011;15177;50.844;4.412;2023-09-30T04:55:05;30.10;;;11.40;;
27796;SDS011;15177;50.844;4.412;2023-09-30T04:57:31;36.30;;;11.38;;
27796;SDS011;15177;50.844;4.412;2023-09-30T04:59:57;30.67;;;10.63;;
27796;SDS011;15177;50.844;4.412;2023-09-30T05:02:27;36.55;;;10.23;;
27796;SDS011;15177;50.844;4.412;2023-09-30T05:04:53;33.30;;;12.05;;
27796;SDS011;15177;50.844;4.412;2023-09-30T05:07:21;39.05;;;10.13;;
27796;SDS011;15177;50.844;4.412;2023-09-30T05:09:47;31.15;;;10.23;;
27796;SDS011;15177;50.844;4.412;2023-09-30T05:12:13;30.35;;;10.98;;
27796;SDS011;15177;50.844;4.412;2023-09-30T05:14:41;26.80;;;10.48;;
27796;SDS011;15177;50.844;4.412;2023-09-30T05:17:07;27.77;;;9.68;;
27796;SDS011;15177;50.844;4.412;2023-09-30T05:19:33;40.95;;;11.80;;
27796;SDS011;15177;50.844;4.412;2023-09-30T05:21:59;34.97;;;10.52;;
27796;SDS011;15177;50.844;4.412;2023-09-30T05:24:26;33.47;;;9.98;;
27796;SDS011;15177;50.844;4.412;2023-09-30T05:26:52;29.08;;;10.38;;
27796;SDS011;15177;50.844;4.412;2023-09-30T05:29:18;32.50;;;11.32;;
27796;SDS011;15177;50.844;4.412;2023-09-30T05:31:43;28.10;;;9.13;;
27796;SDS011;15177;50.844;4.412;2023-09-30T05:34:09;30.08;;;11.05;;
27796;SDS011;15177;50.844;4.412;2023-09-30T05:36:36;29.98;;;9.93;;
27796;SDS011;15177;50.844;4.412;2023-09-30T05:39:01;30.75;;;9.13;;
27796;SDS011;15177;50.844;4.412;2023-09-30T05:41:28;27.52;;;10.05;;
27796;SDS011;15177;50.844;4.412;2023-09-30T05:43:54;35.28;;;9.70;;
27796;SDS011;15177;50.844;4.412;2023-09-30T05:46:20;29.30;;;10.70;;
27796;SDS011;15177;50.844;4.412;2023-09-30T05:48:46;24.73;;;9.82;;
27796;SDS011;15177;50.844;4.412;2023-09-30T05:51:12;31.42;;;9.27;;
27796;SDS011;15177;50.844;4.412;2023-09-30T05:53:41;25.52;;;9.40;;
27796;SDS011;15177;50.844;4.412;2023-09-30T05:56:07;29.92;;;9.65;;
27796;SDS011;15177;50.844;4.412;2023-09-30T05:58:35;25.45;;;9.55;;
27796;SDS011;15177;50.844;4.412;2023-09-30T06:01:02;33.20;;;9.57;;
27796;SDS011;15177;50.844;4.412;2023-09-30T06:03:37;28.35;;;10.48;;
27796;SDS011;15177;50.844;4.412;2023-09-30T06:06:12;27.45;;;10.43;;
27796;SDS011;15177;50.844;4.412;2023-09-30T06:08:40;41.90;;;10.98;;
27796;SDS011;15177;50.844;4.412;2023-09-30T06:11:21;30.65;;;9.93;;
27796;SDS011;15177;50.844;4.412;2023-09-30T06:13:49;38.45;;;11.18;;
27796;SDS011;15177;50.844;4.412;2023-09-30T06:16:19;26.65;;;8.77;;
27796;SDS011;15177;50.844;4.412;2023-09-30T06:18:45;22.90;;;9.23;;
27796;SDS011;15177;50.844;4.412;2023-09-30T06:21:11;33.40;;;10.30;;
27796;SDS011;15177;50.844;4.412;2023-09-30T06:23:43;31.52;;;9.70;;
27796;SDS011;15177;50.844;4.412;2023-09-30T06:26:08;27.45;;;9.43;;
27796;SDS011;15177;50.844;4.412;2023-09-30T06:28:34;30.23;;;9.63;;
27796;SDS011;15177;50.844;4.412;2023-09-30T06:31:06;28.55;;;8.95;;
27796;SDS011;15177;50.844;4.412;2023-09-30T06:33:33;30.13;;;8.43;;
27796;SDS011;15177;50.844;4.412;2023-09-30T06:35:59;29.75;;;8.25;;
27796;SDS011;15177;50.844;4.412;2023-09-30T06:38:27;31.33;;;9.40;;
27796;SDS011;15177;50.844;4.412;2023-09-30T06:40:52;24.23;;;9.20;;
27796;SDS011;15177;50.844;4.412;2023-09-30T06:43:19;29.02;;;9.43;;
27796;SDS011;15177;50.844;4.412;2023-09-30T06:45:45;29.60;;;8.43;;
27796;SDS011;15177;50.844;4.412;2023-09-30T06:48:12;26.83;;;7.97;;
27796;SDS011;15177;50.844;4.412;2023-09-30T06:50:44;21.40;;;8.18;;
27796;SDS011;15177;50.844;4.412;2023-09-30T06:53:13;29.40;;;9.45;;
27796;SDS011;15177;50.844;4.412;2023-09-30T06:55:44;39.60;;;8.85;;
27796;SDS011;15177;50.844;4.412;2023-09-30T06:58:10;28.17;;;7.93;;
27796;SDS011;15177;50.844;4.412;2023-09-30T07:00:36;24.75;;;7.90;;
27796;SDS011;15177;50.844;4.412;2023-09-30T07:03:03;22.40;;;7.65;;
27796;SDS011;15177;50.844;4.412;2023-09-30T07:05:29;20.95;;;7.50;;
27796;SDS011;15177;50.844;4.412;2023-09-30T07:07:55;23.88;;;8.10;;
27796;SDS011;15177;50.844;4.412;2023-09-30T07:10:21;22.02;;;7.18;;
27796;SDS011;15177;50.844;4.412;2023-09-30T07:12:46;20.42;;;6.85;;
27796;SDS011;15177;50.844;4.412;2023-09-30T07:15:12;21.05;;;6.72;;
27796;SDS011;15177;50.844;4.412;2023-09-30T07:17:39;24.40;;;7.88;;
27796;SDS011;15177;50.844;4.412;2023-09-30T07:20:05;26.42;;;6.88;;
27796;SDS011;15177;50.844;4.412;2023-09-30T07:22:35;25.42;;;6.53;;
27796;SDS011;15177;50.844;4.412;2023-09-30T07:25:01;20.42;;;7.05;;
27796;SDS011;15177;50.844;4.412;2023-09-30T07:27:27;19.95;;;6.47;;
27796;SDS011;15177;50.844;4.412;2023-09-30T07:29:53;24.02;;;6.68;;
27796;SDS011;15177;50.844;4.412;2023-09-30T07:32:18;21.50;;;6.47;;
27796;SDS011;15177;50.844;4.412;2023-09-30T07:34:44;21.25;;;6.75;;
27796;SDS011;15177;50.844;4.412;2023-09-30T07:37:10;23.83;;;7.13;;
27796;SDS011;15177;50.844;4.412;2023-09-30T07:39:35;24.45;;;6.85;;
27796;SDS011;15177;50.844;4.412;2023-09-30T07:42:01;23.67;;;5.88;;
27796;SDS011;15177;50.844;4.412;2023-09-30T07:44:27;17.95;;;6.20;;
27796;SDS011;15177;50.844;4.412;2023-09-30T07:46:53;24.08;;;6.32;;
27796;SDS011;15177;50.844;4.412;2023-09-30T07:49:19;19.92;;;5.82;;
27796;SDS011;15177;50.844;4.412;2023-09-30T07:51:44;17.98;;;5.95;;
27796;SDS011;15177;50.844;4.412;2023-09-30T07:54:13;22.65;;;5.30;;
27796;SDS011;15177;50.844;4.412;2023-09-30T07:56:39;22.20;;;5.82;;
27796;SDS011;15177;50.844;4.412;2023-09-30T07:59:05;26.23;;;6.70;;
27796;SDS011;15177;50.844;4.412;2023-09-30T08:01:33;25.10;;;6.47;;
27796;SDS011;15177;50.844;4.412;2023-09-30T08:03:59;19.02;;;5.45;;
27796;SDS011;15177;50.844;4.412;2023-09-30T08:06:24;18.88;;;6.22;;
27796;SDS011;15177;50.844;4.412;2023-09-30T08:08:50;17.92;;;5.68;;
27796;SDS011;15177;50.844;4.412;2023-09-30T08:11:17;16.77;;;5.30;;
27796;SDS011;15177;50.844;4.412;2023-09-30T08:13:43;18.27;;;4.90;;
27796;SDS011;15177;50.844;4.412;2023-09-30T08:16:08;17.58;;;5.85;;
27796;SDS011;15177;50.844;4.412;2023-09-30T08:18:34;21.42;;;6.00;;
27796;SDS011;15177;50.844;4.412;2023-09-30T08:21:00;23.27;;;6.05;;
27796;SDS011;15177;50.844;4.412;2023-09-30T08:23:25;19.42;;;6.68;;
27796;SDS011;15177;50.844;4.412;2023-09-30T08:25:51;18.88;;;5.93;;
27796;SDS011;15177;50.844;4.412;2023-09-30T08:28:17;20.35;;;6.18;;
27796;SDS011;15177;50.844;4.412;2023-09-30T08:30:42;16.20;;;5.65;;
27796;SDS011;15177;50.844;4.412;2023-09-30T08:33:08;25.80;;;5.60;;
27796;SDS011;15177;50.844;4.412;2023-09-30T08:35:37;19.70;;;5.25;;
27796;SDS011;15177;50.844;4.412;2023-09-30T08:38:03;19.98;;;5.80;;
27796;SDS011;15177;50.844;4.412;2023-09-30T08:40:29;21.50;;;5.88;;
27796;SDS011;15177;50.844;4.412;2023-09-30T08:42:55;17.98;;;5.85;;
27796;SDS011;15177;50.844;4.412;2023-09-30T08:45:20;22.38;;;5.93;;
27796;SDS011;15177;50.844;4.412;2023-09-30T08:47:46;18.13;;;5.28;;
27796;SDS011;15177;50.844;4.412;2023-09-30T08:50:12;20.85;;;6.38;;
27796;SDS011;15177;50.844;4.412;2023-09-30T08:52:40;14.07;;;5.28;;
27796;SDS011;15177;50.844;4.412;2023-09-30T08:55:07;19.70;;;6.05;;
27796;SDS011;15177;50.844;4.412;2023-09-30T08:57:35;21.48;;;5.68;;
27796;SDS011;15177;50.844;4.412;2023-09-30T09:00:04;15.43;;;5.28;;
27796;SDS011;15177;50.844;4.412;2023-09-30T09:02:34;14.57;;;5.40;;
27796;SDS011;15177;50.844;4.412;2023-09-30T09:05:00;19.05;;;5.28;;
27796;SDS011;15177;50.844;4.412;2023-09-30T09:07:31;21.95;;;5.60;;
27796;SDS011;15177;50.844;4.412;2023-09-30T09:10:04;15.35;;;4.70;;
27796;SDS011;15177;50.844;4.412;2023-09-30T09:12:37;14.57;;;5.05;;
27796;SDS011;15177;50.844;4.412;2023-09-30T09:15:06;13.30;;;4.70;;
27796;SDS011;15177;50.844;4.412;2023-09-30T09:17:43;14.95;;;4.75;;
27796;SDS011;15177;50.844;4.412;2023-09-30T09:20:11;15.35;;;4.93;;
27796;SDS011;15177;50.844;4.412;2023-09-30T09:22:43;14.60;;;4.97;;
27796;SDS011;15177;50.844;4.412;2023-09-30T09:25:09;20.38;;;5.03;;
27796;SDS011;15177;50.844;4.412;2023-09-30T09:27:36;17.23;;;5.57;;
27796;SDS011;15177;50.844;4.412;2023-09-30T09:30:22;15.23;;;4.65;;
27796;SDS011;15177;50.844;4.412;2023-09-30T09:32:59;19.17;;;5.32;;
27796;SDS011;15177;50.844;4.412;2023-09-30T09:35:33;17.17;;;4.97;;
27796;SDS011;15177;50.844;4.412;2023-09-30T09:38:03;15.60;;;4.53;;
27796;SDS011;15177;50.844;4.412;2023-09-30T09:40:34;12.88;;;5.07;;
27796;SDS011;15177;50.844;4.412;2023-09-30T09:43:01;12.18;;;4.50;;
27796;SDS011;15177;50.844;4.412;2023-09-30T09:45:30;13.05;;;4.70;;
27796;SDS011;15177;50.844;4.412;2023-09-30T09:48:08;15.18;;;4.95;;
27796;SDS011;15177;50.844;4.412;2023-09-30T09:50:34;14.48;;;4.70;;
27796;SDS011;15177;50.844;4.412;2023-09-30T09:53:03;15.15;;;4.97;;
27796;SDS011;15177;50.844;4.412;2023-09-30T09:55:30;15.85;;;4.43;;
27796;SDS011;15177;50.844;4.412;2023-09-30T09:57:55;18.27;;;5.05;;
27796;SDS011;15177;50.844;4.412;2023-09-30T10:00:24;13.65;;;4.38;;
27796;SDS011;15177;50.844;4.412;2023-09-30T10:02:51;21.85;;;5.15;;
27796;SDS011;15177;50.844;4.412;2023-09-30T10:05:18;14.95;;;5.43;;
27796;SDS011;15177;50.844;4.412;2023-09-30T10:07:46;18.13;;;5.00;;
27796;SDS011;15177;50.844;4.412;2023-09-30T10:10:13;14.05;;;4.97;;
27796;SDS011;15177;50.844;4.412;2023-09-30T10:12:42;13.38;;;4.97;;
27796;SDS011;15177;50.844;4.412;2023-09-30T10:18:02;13.60;;;4.05;;
27796;SDS011;15177;50.844;4.412;2023-09-30T10:20:29;13.40;;;4.45;;
27796;SDS011;15177;50.844;4.412;2023-09-30T10:25:54;12.60;;;3.95;;
27796;SDS011;15177;50.844;4.412;2023-09-30T10:28:46;14.70;;;4.45;;
27796;SDS011;15177;50.844;4.412;2023-09-30T10:31:16;20.70;;;4.50;;
27796;SDS011;15177;50.844;4.412;2023-09-30T10:36:30;15.85;;;5.45;;
27796;SDS011;15177;50.844;4.412;2023-09-30T10:39:06;18.38;;;4.68;;
27796;SDS011;15177;50.844;4.412;2023-09-30T10:46:52;12.52;;;4.28;;
27796;SDS011;15177;50.844;4.412;2023-09-30T10:51:50;16.20;;;5.20;;
27796;SDS011;15177;50.844;4.412;2023-09-30T10:54:21;10.68;;;3.83;;
27796;SDS011;15177;50.844;4.412;2023-09-30T10:56:48;20.10;;;4.55;;
27796;SDS011;15177;50.844;4.412;2023-09-30T10:59:23;10.98;;;3.83;;
27796;SDS011;15177;50.844;4.412;2023-09-30T11:01:50;13.55;;;4.40;;
27796;SDS011;15177;50.844;4.412;2023-09-30T11:04:16;15.80;;;4.43;;
27796;SDS011;15177;50.844;4.412;2023-09-30T11:06:43;16.05;;;4.20;;
27796;SDS011;15177;50.844;4.412;2023-09-30T11:09:10;12.95;;;3.95;;
27796;SDS011;15177;50.844;4.412;2023-09-30T11:11:45;11.20;;;4.38;;
27796;SDS011;15177;50.844;4.412;2023-09-30T11:14:16;16.08;;;4.68;;
27796;SDS011;15177;50.844;4.412;2023-09-30T11:16:42;13.82;;;3.88;;
27796;SDS011;15177;50.844;4.412;2023-09-30T11:19:09;15.30;;;4.70;;
27796;SDS011;15177;50.844;4.412;2023-09-30T11:21:36;14.23;;;3.83;;
27796;SDS011;15177;50.844;4.412;2023-09-30T11:24:02;11.85;;;4.03;;
27796;SDS011;15177;50.844;4.412;2023-09-30T11:26:29;15.60;;;4.25;;
27796;SDS011;15177;50.844;4.412;2023-09-30T11:29:04;17.02;;;4.20;;
27796;SDS011;15177;50.844;4.412;2023-09-30T11:31:31;10.82;;;3.65;;
27796;SDS011;15177;50.844;4.412;2023-09-30T11:33:59;15.32;;;4.43;;
27796;SDS011;15177;50.844;4.412;2023-09-30T11:36:29;11.52;;;4.20;;
27796;SDS011;15177;50.844;4.412;2023-09-30T11:38:58;12.07;;;4.18;;
27796;SDS011;15177;50.844;4.412;2023-09-30T11:41:31;13.27;;;4.03;;
27796;SDS011;15177;50.844;4.412;2023-09-30T11:44:09;12.65;;;4.28;;
27796;SDS011;15177;50.844;4.412;2023-09-30T11:46:53;17.10;;;4.30;;
27796;SDS011;15177;50.844;4.412;2023-09-30T11:49:31;11.15;;;3.90;;
27796;SDS011;15177;50.844;4.412;2023-09-30T11:52:00;9.60;;;3.80;;
27796;SDS011;15177;50.844;4.412;2023-09-30T11:54:37;15.20;;;4.55;;
27796;SDS011;15177;50.844;4.412;2023-09-30T11:57:09;11.07;;;3.55;;
27796;SDS011;15177;50.844;4.412;2023-09-30T11:59:36;13.55;;;2.95;;
27796;SDS011;15177;50.844;4.412;2023-09-30T12:02:03;12.43;;;3.22;;
27796;SDS011;15177;50.844;4.412;2023-09-30T12:04:30;11.10;;;3.28;;
27796;SDS011;15177;50.844;4.412;2023-09-30T12:06:56;8.18;;;2.75;;
27796;SDS011;15177;50.844;4.412;2023-09-30T12:09:23;11.98;;;3.47;;
27796;SDS011;15177;50.844;4.412;2023-09-30T12:11:52;9.85;;;2.60;;
27796;SDS011;15177;50.844;4.412;2023-09-30T12:14:19;11.15;;;3.65;;
27796;SDS011;15177;50.844;4.412;2023-09-30T12:16:47;9.27;;;2.63;;
27796;SDS011;15177;50.844;4.412;2023-09-30T12:19:14;10.70;;;2.88;;
27796;SDS011;15177;50.844;4.412;2023-09-30T12:21:41;9.15;;;2.63;;
27796;SDS011;15177;50.844;4.412;2023-09-30T12:24:07;8.38;;;3.20;;
27796;SDS011;15177;50.844;4.412;2023-09-30T12:26:34;9.13;;;3.25;;
27796;SDS011;15177;50.844;4.412;2023-09-30T12:29:01;11.15;;;3.50;;
27796;SDS011;15177;50.844;4.412;2023-09-30T12:31:27;8.68;;;3.35;;
27796;SDS011;15177;50.844;4.412;2023-09-30T12:33:52;8.65;;;2.70;;
27796;SDS011;15177;50.844;4.412;2023-09-30T12:36:18;11.05;;;2.72;;
27796;SDS011;15177;50.844;4.412;2023-09-30T12:38:44;10.05;;;3.50;;
27796;SDS011;15177;50.844;4.412;2023-09-30T12:41:10;10.02;;;2.97;;
27796;SDS011;15177;50.844;4.412;2023-09-30T12:43:37;8.57;;;3.45;;
27796;SDS011;15177;50.844;4.412;2023-09-30T12:46:03;9.60;;;3.30;;
27796;SDS011;15177;50.844;4.412;2023-09-30T12:48:29;16.25;;;3.92;;
27796;SDS011;15177;50.844;4.412;2023-09-30T12:50:55;11.55;;;4.10;;
27796;SDS011;15177;50.844;4.412;2023-09-30T12:53:21;13.23;;;3.78;;
27796;SDS011;15177;50.844;4.412;2023-09-30T12:55:46;14.70;;;3.80;;
27796;SDS011;15177;50.844;4.412;2023-09-30T12:58:12;11.27;;;3.60;;
27796;SDS011;15177;50.844;4.412;2023-09-30T13:00:38;13.73;;;3.72;;
27796;SDS011;15177;50.844;4.412;2023-09-30T13:03:03;11.70;;;3.55;;
27796;SDS011;15177;50.844;4.412;2023-09-30T13:05:29;12.23;;;3.90;;
27796;SDS011;15177;50.844;4.412;2023-09-30T13:07:55;8.70;;;3.33;;
27796;SDS011;15177;50.844;4.412;2023-09-30T13:10:22;11.00;;;3.65;;
27796;SDS011;15177;50.844;4.412;2023-09-30T13:12:48;9.13;;;2.70;;
27796;SDS011;15177;50.844;4.412;2023-09-30T13:15:18;10.93;;;2.90;;
27796;SDS011;15177;50.844;4.412;2023-09-30T13:17:44;8.13;;;2.60;;
27796;SDS011;15177;50.844;4.412;2023-09-30T13:20:10;12.18;;;3.50;;
27796;SDS011;15177;50.844;4.412;2023-09-30T13:22:37;14.25;;;3.40;;
27796;SDS011;15177;50.844;4.412;2023-09-30T13:25:04;12.27;;;3.75;;
27796;SDS011;15177;50.844;4.412;2023-09-30T13:27:30;11.98;;;3.88;;
27796;SDS011;15177;50.844;4.412;2023-09-30T13:29:57;14.65;;;3.63;;
27796;SDS011;15177;50.844;4.412;2023-09-30T13:32:26;9.52;;;3.30;;
27796;SDS011;15177;50.844;4.412;2023-09-30T13:34:53;16.00;;;3.90;;
27796;SDS011;15177;50.844;4.412;2023-09-30T13:37:19;12.15;;;3.35;;
27796;SDS011;15177;50.844;4.412;2023-09-30T13:39:45;11.90;;;3.80;;
27796;SDS011;15177;50.844;4.412;2023-09-30T13:42:10;12.23;;;3.80;;
27796;SDS011;15177;50.844;4.412;2023-09-30T13:44:36;10.70;;;3.13;;
27796;SDS011;15177;50.844;4.412;2023-09-30T13:47:02;8.68;;;2.83;;
27796;SDS011;15177;50.844;4.412;2023-09-30T13:49:28;9.85;;;3.28;;
27796;SDS011;15177;50.844;4.412;2023-09-30T13:51:55;14.02;;;3.20;;
27796;SDS011;15177;50.844;4.412;2023-09-30T13:54:21;12.48;;;3.33;;
27796;SDS011;15177;50.844;4.412;2023-09-30T13:56:46;9.38;;;2.92;;
27796;SDS011;15177;50.844;4.412;2023-09-30T13:59:12;10.85;;;3.05;;
27796;SDS011;15177;50.844;4.412;2023-09-30T14:01:38;9.98;;;3.13;;
27796;SDS011;15177;50.844;4.412;2023-09-30T14:04:06;12.55;;;3.30;;
27796;SDS011;15177;50.844;4.412;2023-09-30T14:06:32;10.50;;;3.20;;
27796;SDS011;15177;50.844;4.412;2023-09-30T14:08:58;13.93;;;3.95;;
27796;SDS011;15177;50.844;4.412;2023-09-30T14:11:24;13.10;;;3.40;;
27796;SDS011;15177;50.844;4.412;2023-09-30T14:13:50;9.68;;;3.10;;
27796;SDS011;15177;50.844;4.412;2023-09-30T14:16:15;11.65;;;3.17;;
27796;SDS011;15177;50.844;4.412;2023-09-30T14:18:41;12.98;;;3.45;;
27796;SDS011;15177;50.844;4.412;2023-09-30T14:21:07;11.88;;;3.17;;
27796;SDS011;15177;50.844;4.412;2023-09-30T14:23:33;10.43;;;3.42;;
27796;SDS011;15177;50.844;4.412;2023-09-30T14:25:59;7.95;;;2.60;;
27796;SDS011;15177;50.844;4.412;2023-09-30T14:28:25;10.90;;;2.83;;
27796;SDS011;15177;50.844;4.412;2023-09-30T14:30:51;8.85;;;3.08;;
27796;SDS011;15177;50.844;4.412;2023-09-30T14:33:18;8.82;;;3.08;;
27796;SDS011;15177;50.844;4.412;2023-09-30T14:35:46;12.85;;;4.22;;
27796;SDS011;15177;50.844;4.412;2023-09-30T14:38:12;9.50;;;2.90;;
27796;SDS011;15177;50.844;4.412;2023-09-30T14:40:38;11.68;;;2.90;;
27796;SDS011;15177;50.844;4.412;2023-09-30T14:43:07;10.77;;;3.05;;
27796;SDS011;15177;50.844;4.412;2023-09-30T14:45:38;14.68;;;3.35;;
27796;SDS011;15177;50.844;4.412;2023-09-30T14:48:05;15.88;;;3.08;;
27796;SDS011;15177;50.844;4.412;2023-09-30T14:50:36;6.65;;;2.53;;